PGWT Airport (Tinian Intl) Information

FAA: TNI - ICAO: PGWT

PGWT Airport Location

State N Mariana Islands
County Northern Mariana Is
City Tinian Island
PGWT Airport is 1 miles north of Tinian Island, CQ.
Latitude 14-59-57.2300N
Longitude 145-37-09.6630E
Elevation 270ft

PGWT Airport METARs

METAR PGWT 262355Z 09014KT 7SM SCT017 SCT100 SCT140 28/25 A2991
Altimeter 29.91"
Temperature 28.0°C (82.4°F)
Wind 90° at 14KT
Clouds scattered at 1,700ft scattered at 10,000ft scattered at 14,000ft
Visibility 7.0mi
Time observed: 2021-11-26T23:55:00Z

PGWT Airport Details

Status Operational
Activation May 1973
Ownership Public
Usage Public
Chart GNC 7
ATC on-site No
Beacon schedule sunset-sunrise
Beacon color clear green

PGWT Airport Contacts

Owner COMMONWEALTH PORTS AUTHORITY
Owner address PO BOX 235, TINIAN, MP 96952-1055
Owner phone (670) 237-6520
Manager US GOV, FAA TURNAGAIN SSC
Manager address 301 E 56TH STREET, ANCHORAGE, AK 99518
Manager phone 907-271-2216

PGWT Airport (Tinian Intl) Radio Frequencies

PGWT (Airport) Radio Frequencies

UNICOM N/A
Common traffic advisory frequency (CTAF) 123.6